National Geographic Sea Bird — WAK8004 — position and weather

sailwx.info

Track history (hours):
 
Tides and Currents Weather Stations Pressure Air Temp Water Temp Dewpoint Dewpoint Depression Visibility Wind Speed Wind Dir Waves Ship Positions

National Geographic Sea Bird

Owner: Lindblad Expeditions LLC, SEATTLE, WA. More information available from US FCC via Universal Licensing System and Coast Guard Vessel Documentation Center.

Last reported at 2018-Oct-24 05:03 UTC. Time now 2018-Oct-24 05:24 UTC.
Position N 49°12' W 123°39'.

Length 50 m; draft 2.7 m.

Type: Passenger vessel. MMSI: 366892350.

Date/timePositionNaut miles runAvg speedWind from/ knotsBaromVisibWave heightAir tempDewpointWater temp
2018-Oct-24 05:03N 49°12' W 123°39'0 8.9
2018-Oct-24 05:01N 49°13' W 123°40'4 8.7
2018-Oct-24 04:31N 49°16' W 123°44'4 8.6
2018-Oct-24 04:04N 49°19' W 123°48'0 8.8
2018-Oct-24 04:01N 49°19' W 123°49'4 8.4
2018-Oct-24 03:30N 49°22' W 123°53'4 8.3
2018-Oct-24 03:03N 49°25' W 123°57'0 8.6
2018-Oct-24 03:00N 49°25' W 123°58'8 8.3
2018-Oct-24 02:06N 49°31' W 124°06'1 7.9
2018-Oct-24 02:01N 49°31' W 124°06'1 8.2
2018-Oct-24 01:50N 49°32' W 124°07'3 8.7
2018-Oct-24 01:30N 49°35' W 124°10'4 9.1
2018-Oct-24 01:00N 49°39' W 124°13'5 9.2
2018-Oct-24 00:30N 49°42' W 124°19'4 9.2
2018-Oct-24 00:03N 49°45' W 124°23'0 9.3
2018-Oct-24 00:01N 49°45' W 124°24'5 9.3
2018-Oct-23 23:31N 49°46' W 124°31'4 9.0
2018-Oct-23 23:03N 49°50' W 124°34'0 9.5
2018-Oct-23 23:00N 49°50' W 124°35'5 9.4
2018-Oct-23 22:30N 49°54' W 124°39'4 9.4
2018-Oct-23 22:04N 49°57' W 124°44'0 9.0
2018-Oct-23 22:01N 49°57' W 124°44'5 9.4
2018-Oct-23 21:30N 49°60' W 124°50'4 8.5
2018-Oct-23 21:03N 50°03' W 124°52'110.7
2018-Oct-23 21:00N 50°04' W 124°51'510.3
2018-Oct-23 20:31N 50°08' W 124°46'4 9.1
2018-Oct-23 20:03N 50°09' W 124°40'0 4.5
2018-Oct-23 20:01N 50°09' W 124°40'0 0.0
2018-Oct-23 19:31N 50°09' W 124°40'0 0.0
2018-Oct-23 19:03N 50°09' W 124°40'0 0.8
2018-Oct-23 19:00N 50°09' W 124°40'0 0.1
2018-Oct-23 18:31N 50°09' W 124°40'0 0.0
2018-Oct-23 18:04N 50°09' W 124°40'0 0.7
2018-Oct-23 18:00N 50°09' W 124°40'0 0.1
2018-Oct-23 17:31N 50°09' W 124°40'0 0.0
2018-Oct-23 17:04N 50°09' W 124°40'0 0.8
2018-Oct-23 17:01N 50°09' W 124°40'0 0.0
2018-Oct-23 16:31N 50°09' W 124°40'2 4.8
2018-Oct-23 16:04N 50°09' W 124°43'0 9.2
2018-Oct-23 16:01N 50°09' W 124°44'510.2
2018-Oct-23 15:31N 50°05' W 124°49'510.0
2018-Oct-23 15:03N 50°01' W 124°54'010.2
2018-Oct-23 15:01N 50°01' W 124°55'5 9.6
2018-Oct-23 14:30N 49°58' W 125°01'7 7.2
2018-Oct-23 13:31N 49°60' W 125°12'3 6.3
2018-Oct-23 13:03N 50°02' W 125°14'0 7.1
2018-Oct-23 13:00N 50°02' W 125°14'4 8.5
2018-Oct-23 12:31N 50°06' W 125°18'4 7.9
2018-Oct-23 12:04N 50°09' W 125°21'0 9.0
2018-Oct-23 12:01N 50°09' W 125°21'510.1
2018-Oct-23 11:31N 50°14' W 125°23'510.3
2018-Oct-23 11:03N 50°19' W 125°25'1 9.9
2018-Oct-23 10:59N 50°19' W 125°25'2 3.4
2018-Oct-23 10:31N 50°21' W 125°25'0 1.0
2018-Oct-23 10:03N 50°21' W 125°26'0 5.1
2018-Oct-23 10:00N 50°21' W 125°27'9 4.9
2018-Oct-23 08:06N 50°22' W 125°41'1 6.0
2018-Oct-23 08:01N 50°22' W 125°42'24 9.0
2018-Oct-23 05:19N 50°29' W 126°18'2 7.7
2018-Oct-23 05:01N 50°30' W 126°22'0 6.9
2018-Oct-23 05:00N 50°30' W 126°22'4 7.2
2018-Oct-23 04:30N 50°30' W 126°28'3 7.1
2018-Oct-23 04:02N 50°30' W 126°33'0 7.7
2018-Oct-23 03:58N 50°30' W 126°34'3 7.2
2018-Oct-23 03:30N 50°31' W 126°39'4 7.3
2018-Oct-23 02:59N 50°33' W 126°44'3 7.0
2018-Oct-23 02:30N 50°34' W 126°49'3 6.8
2018-Oct-23 02:02N 50°34' W 126°54'0 5.8
2018-Oct-23 02:00N 50°34' W 126°54'1 0.2
2018-Oct-22 19:14N 50°35' W 126°56'1 3.5
2018-Oct-22 19:00N 50°34' W 126°55'5 9.8
2018-Oct-22 18:28N 50°34' W 126°47'3 7.2
2018-Oct-22 18:00N 50°33' W 126°42'2 4.1
2018-Oct-22 17:28N 50°35' W 126°43'3 7.1
2018-Oct-22 17:02N 50°36' W 126°47'0 1.1
2018-Oct-22 17:00N 50°36' W 126°47'0 0.4
2018-Oct-22 16:28N 50°36' W 126°47'3 6.3
2018-Oct-22 16:03N 50°36' W 126°43'0 6.0
2018-Oct-22 16:00N 50°35' W 126°43'2 3.7
2018-Oct-22 15:30N 50°36' W 126°46'0 0.7
2018-Oct-22 15:01N 50°36' W 126°46'0 5.9
2018-Oct-22 15:00N 50°36' W 126°46'3 5.7
2018-Oct-22 14:27N 50°34' W 126°42'7 7.6
2018-Oct-22 13:30N 50°30' W 126°32'3 5.9
2018-Oct-22 13:02N 50°30' W 126°28'0 6.0
2018-Oct-22 13:00N 50°30' W 126°27'3 6.2
2018-Oct-22 12:29N 50°30' W 126°22'3 6.2
2018-Oct-22 12:03N 50°29' W 126°18'0 6.0
2018-Oct-22 11:58N 50°29' W 126°17'3 6.1
2018-Oct-22 11:27N 50°29' W 126°13'3 6.7
2018-Oct-22 10:57N 50°28' W 126°07'16 6.8
2018-Oct-22 08:39N 50°22' W 125°44'1 9.0
2018-Oct-22 08:29N 50°22' W 125°42'7 6.8
2018-Oct-22 07:29N 50°21' W 125°32'3 6.3
2018-Oct-22 07:01N 50°20' W 125°27'0 7.2
2018-Oct-22 06:57N 50°20' W 125°26'3 7.3
2018-Oct-22 06:29N 50°17' W 125°25'4 8.2
2018-Oct-22 06:01N 50°14' W 125°23'0 8.6
2018-Oct-22 06:00N 50°13' W 125°23'4 8.8
2018-Oct-22 05:30N 50°09' W 125°21'3 7.0
2018-Oct-22 05:03N 50°07' W 125°18'0 5.4
2018-Oct-22 05:00N 50°06' W 125°18'4 8.0
2018-Oct-22 04:31N 50°03' W 125°15'4 9.6
2018-Oct-22 04:03N 49°59' W 125°12'0 9.8
2018-Oct-22 04:00N 49°59' W 125°11'4 7.9
2018-Oct-22 03:30N 49°58' W 125°05'4 8.3
2018-Oct-22 03:03N 49°59' W 124°60'0 8.3
2018-Oct-22 03:00N 49°60' W 124°59'4 8.6
2018-Oct-22 02:30N 50°02' W 124°54'4 9.4
2018-Oct-22 02:04N 50°05' W 124°49'0 8.7
2018-Oct-22 02:00N 50°05' W 124°48'4 7.0
2018-Oct-22 01:29N 50°06' W 124°43'1 3.0
2018-Oct-22 01:01N 50°07' W 124°42'0 0.0
2018-Oct-22 00:58N 50°07' W 124°42'0 0.0
2018-Oct-22 00:28N 50°07' W 124°42'0 0.0
2018-Oct-22 00:01N 50°07' W 124°42'0 0.1
2018-Oct-21 23:58N 50°07' W 124°42'0 0.0
2018-Oct-21 23:28N 50°07' W 124°42'0 0.0
2018-Oct-21 23:01N 50°07' W 124°42'0 0.1
2018-Oct-21 22:58N 50°07' W 124°42'0 0.0
2018-Oct-21 22:28N 50°07' W 124°42'0 0.0
2018-Oct-21 21:58N 50°07' W 124°42'0 0.0
2018-Oct-21 20:58N 50°07' W 124°42'0 0.0
2018-Oct-21 20:28N 50°07' W 124°42'0 0.0
2018-Oct-21 20:01N 50°07' W 124°42'0 0.0
2018-Oct-21 19:58N 50°07' W 124°42'0 0.8
2018-Oct-21 19:30N 50°07' W 124°42'4 7.8
2018-Oct-21 19:03N 50°05' W 124°47'0 8.5
2018-Oct-21 19:00N 50°05' W 124°48'4 8.2
2018-Oct-21 18:30N 50°08' W 124°53'4 8.9
2018-Oct-21 18:03N 50°11' W 124°56'0 9.1
2018-Oct-21 18:00N 50°12' W 124°56'4 8.5
2018-Oct-21 17:30N 50°16' W 124°59'4 8.9
2018-Oct-21 17:03N 50°19' W 124°55'0 9.0
2018-Oct-21 17:00N 50°19' W 124°55'5 9.0
2018-Oct-21 16:30N 50°18' W 124°48'4 8.4
2018-Oct-21 16:03N 50°18' W 124°42'0 8.9
2018-Oct-21 16:00N 50°18' W 124°41'4 8.8
2018-Oct-21 15:30N 50°14' W 124°38'4 8.7
2018-Oct-21 15:03N 50°10' W 124°40'0 9.5
2018-Oct-21 15:00N 50°10' W 124°41'7 7.2
2018-Oct-21 14:03N 50°05' W 124°48'4 7.6
2018-Oct-21 13:30N 50°03' W 124°53'4 7.8
2018-Oct-21 13:03N 49°60' W 124°50'0 7.6
2018-Oct-21 13:00N 49°59' W 124°50'4 8.4
2018-Oct-21 12:30N 49°57' W 124°45'4 8.8
2018-Oct-21 12:03N 49°54' W 124°40'0 8.8
2018-Oct-21 12:00N 49°54' W 124°39'4 8.8
2018-Oct-21 11:30N 49°51' W 124°35'4 8.5
2018-Oct-21 11:03N 49°47' W 124°33'1 8.5
2018-Oct-21 11:00N 49°47' W 124°32'4 8.5
2018-Oct-21 10:30N 49°46' W 124°26'4 8.0
2018-Oct-21 10:03N 49°43' W 124°21'0 7.8
2018-Oct-21 10:00N 49°43' W 124°21'4 8.2
2018-Oct-21 09:29N 49°40' W 124°16'4 8.1
2018-Oct-21 09:02N 49°38' W 124°12'2 8.1
2018-Oct-21 08:48N 49°36' W 124°11'3 8.0
2018-Oct-21 08:28N 49°34' W 124°09'3 7.8
2018-Oct-21 08:03N 49°31' W 124°06'0 8.4
2018-Oct-21 08:00N 49°31' W 124°05'4 8.3
2018-Oct-21 07:30N 49°27' W 124°01'4 8.2
2018-Oct-21 07:03N 49°25' W 123°57'0 8.3
2018-Oct-21 07:00N 49°25' W 123°57'4 8.3
2018-Oct-21 06:30N 49°22' W 123°52'4 8.3
2018-Oct-21 06:03N 49°19' W 123°48'0 7.9
2018-Oct-21 06:00N 49°19' W 123°47'4 8.3
2018-Oct-21 05:30N 49°16' W 123°43'4 8.3
2018-Oct-21 05:03N 49°14' W 123°38'0 8.5
2018-Oct-21 05:00N 49°14' W 123°38'4 8.3
2018-Oct-21 04:30N 49°11' W 123°33'4 8.5
2018-Oct-21 04:03N 49°08' W 123°28'0 8.2
2018-Oct-21 04:00N 49°08' W 123°28'4 7.9
2018-Oct-21 03:30N 49°06' W 123°23'4 7.8
2018-Oct-21 03:03N 49°06' W 123°18'110.5
2018-Oct-21 03:00N 49°07' W 123°17'4 8.5
2018-Oct-21 02:30N 49°07' W 123°11'0 0.1
2018-Oct-21 02:03N 49°07' W 123°11'0 0.0
2018-Oct-21 02:00N 49°07' W 123°11'0 0.0
2018-Oct-21 01:30N 49°07' W 123°11'0 0.0
2018-Oct-21 01:03N 49°07' W 123°11'0 0.0
2018-Oct-21 01:00N 49°07' W 123°11'0 0.0
2018-Oct-21 00:30N 49°07' W 123°11'0 0.0
2018-Oct-21 00:03N 49°07' W 123°11'0 0.0
2018-Oct-21 00:00N 49°07' W 123°11'0 0.0
2018-Oct-20 23:29N 49°07' W 123°11'0 0.0
2018-Oct-20 23:03N 49°07' W 123°11'0 0.0
2018-Oct-20 23:00N 49°07' W 123°11'0 0.0
2018-Oct-20 22:30N 49°07' W 123°11'0 0.0
2018-Oct-20 22:03N 49°07' W 123°11'0 0.0
2018-Oct-20 22:00N 49°07' W 123°11'0 0.0
2018-Oct-20 21:30N 49°07' W 123°11'0 0.0
2018-Oct-20 21:03N 49°07' W 123°11'0 0.0
2018-Oct-20 21:00N 49°07' W 123°11'0 0.0
2018-Oct-20 20:30N 49°07' W 123°11'0 0.0
2018-Oct-20 20:03N 49°07' W 123°11'0 0.0
2018-Oct-20 20:00N 49°07' W 123°11'0 0.0
2018-Oct-20 19:30N 49°07' W 123°11'0 0.0
2018-Oct-20 19:03N 49°07' W 123°11'0 0.1
2018-Oct-20 19:00N 49°07' W 123°11'0 0.0
2018-Oct-20 18:30N 49°07' W 123°11'0 0.0
2018-Oct-20 18:03N 49°07' W 123°11'0 0.0
2018-Oct-20 18:00N 49°07' W 123°11'0 0.0
2018-Oct-20 17:30N 49°07' W 123°11'0 0.0
2018-Oct-20 17:03N 49°07' W 123°11'0 0.1
2018-Oct-20 16:59N 49°07' W 123°11'0 0.0
2018-Oct-20 16:30N 49°07' W 123°11'0 0.0
2018-Oct-20 16:03N 49°07' W 123°11'0 0.0
2018-Oct-20 16:00N 49°07' W 123°11'0 0.0
2018-Oct-20 15:30N 49°07' W 123°11'0 0.0
2018-Oct-20 15:03N 49°07' W 123°11'0 0.0
2018-Oct-20 15:00N 49°07' W 123°11'0 0.0
2018-Oct-20 14:30N 49°07' W 123°11'3 3.1
2018-Oct-20 13:30N 49°07' W 123°15'3 7.1
2018-Oct-20 13:03N 49°06' W 123°20'0 8.6
2018-Oct-20 13:00N 49°05' W 123°20'3 5.7
2018-Oct-20 12:30N 49°06' W 123°24'3 6.6
2018-Oct-20 12:03N 49°08' W 123°28'0 7.5
2018-Oct-20 12:00N 49°08' W 123°28'4 7.0
2018-Oct-20 11:30N 49°10' W 123°32'3 7.1
2018-Oct-20 11:03N 49°12' W 123°36'0 7.1
2018-Oct-20 11:00N 49°13' W 123°36'4 7.3
2018-Oct-20 10:30N 49°15' W 123°40'3 7.3
2018-Oct-20 10:03N 49°17' W 123°44'0 7.0
2018-Oct-20 10:00N 49°18' W 123°44'4 7.4
2018-Oct-20 09:30N 49°20' W 123°49'3 7.4
2018-Oct-20 09:03N 49°22' W 123°52'0 7.5
2018-Oct-20 09:00N 49°22' W 123°53'4 7.3
2018-Oct-20 08:30N 49°25' W 123°57'3 7.7
2018-Oct-20 08:03N 49°27' W 124°01'0 7.9
2018-Oct-20 08:00N 49°28' W 124°01'4 7.6
2018-Oct-20 07:29N 49°31' W 124°05'4 7.8
2018-Oct-20 07:00N 49°34' W 124°09'4 8.0
2018-Oct-20 06:30N 49°37' W 124°12'4 8.2
2018-Oct-20 06:03N 49°40' W 124°16'0 8.1
2018-Oct-20 06:00N 49°40' W 124°16'4 8.0
2018-Oct-20 05:30N 49°43' W 124°21'4 7.9
2018-Oct-20 05:03N 49°45' W 124°25'0 8.1
2018-Oct-20 05:00N 49°45' W 124°26'4 7.9
2018-Oct-20 04:30N 49°47' W 124°32'3 7.6
2018-Oct-20 04:03N 49°49' W 124°34'0 7.6
2018-Oct-20 04:00N 49°50' W 124°34'4 8.1
2018-Oct-20 03:30N 49°53' W 124°38'4 8.4
2018-Oct-20 03:03N 49°56' W 124°42'0 8.6
2018-Oct-20 03:00N 49°56' W 124°43'4 8.4
2018-Oct-20 02:30N 49°58' W 124°48'4 8.1
2018-Oct-20 02:03N 50°01' W 124°52'0 7.2
2018-Oct-20 02:00N 50°01' W 124°52'4 8.4
2018-Oct-20 01:30N 50°05' W 124°52'4 9.6
2018-Oct-20 01:03N 50°10' W 124°54'0 9.3
2018-Oct-20 01:00N 50°10' W 124°54'5 9.3
2018-Oct-20 00:30N 50°14' W 124°58'4 8.0
2018-Oct-20 00:03N 50°17' W 124°57'110.1
2018-Oct-20 00:00N 50°18' W 124°57'5 9.2
2018-Oct-19 23:30N 50°18' W 124°50'4 9.5
2018-Oct-19 23:03N 50°19' W 124°43'110.2
2018-Oct-19 23:00N 50°18' W 124°42'3 5.1
2018-Oct-19 22:31N 50°17' W 124°40'3 6.7
2018-Oct-19 22:03N 50°14' W 124°38'0 9.4
2018-Oct-19 22:00N 50°13' W 124°38'4 9.0
2018-Oct-19 21:30N 50°10' W 124°42'4 9.0
2018-Oct-19 21:03N 50°07' W 124°47'0 9.4
2018-Oct-19 21:00N 50°06' W 124°47'3 6.2
2018-Oct-19 20:30N 50°07' W 124°42'1 1.7
2018-Oct-19 20:03N 50°07' W 124°42'0 0.0
2018-Oct-19 20:00N 50°07' W 124°42'0 0.0
2018-Oct-19 19:30N 50°07' W 124°42'0 0.1
2018-Oct-19 19:03N 50°07' W 124°42'0 0.1
2018-Oct-19 19:00N 50°07' W 124°42'0 0.0
2018-Oct-19 18:30N 50°07' W 124°42'0 0.0
2018-Oct-19 18:03N 50°07' W 124°42'0 0.0
2018-Oct-19 18:00N 50°07' W 124°42'0 0.0
2018-Oct-19 17:30N 50°07' W 124°42'0 0.0
2018-Oct-19 17:03N 50°07' W 124°42'0 0.0
2018-Oct-19 17:00N 50°07' W 124°42'0 0.0
2018-Oct-19 16:30N 50°07' W 124°42'0 0.0
2018-Oct-19 16:03N 50°07' W 124°42'0 0.1
2018-Oct-19 16:00N 50°07' W 124°42'0 0.0
2018-Oct-19 15:30N 50°07' W 124°42'0 0.0
2018-Oct-19 15:03N 50°07' W 124°42'0 0.1
2018-Oct-19 15:00N 50°07' W 124°42'5 5.8
2018-Oct-19 14:03N 50°05' W 124°49'4 6.5
2018-Oct-19 13:30N 50°02' W 124°54'1 2.3
2018-Oct-19 13:03N 50°01' W 124°53'0 5.2
2018-Oct-19 13:00N 50°02' W 124°53'2 4.8
2018-Oct-19 12:30N 50°01' W 124°57'3 6.3
2018-Oct-19 12:03N 49°59' W 125°00'0 7.0
2018-Oct-19 12:00N 49°59' W 125°01'3 6.6
2018-Oct-19 11:30N 49°58' W 125°06'3 5.6
2018-Oct-19 11:00N 49°58' W 125°10'3 5.4
2018-Oct-19 10:30N 50°01' W 125°13'3 6.2
2018-Oct-19 10:03N 50°03' W 125°14'0 6.2
2018-Oct-19 10:00N 50°03' W 125°15'3 6.9
2018-Oct-19 09:30N 50°06' W 125°18'3 6.6
2018-Oct-19 09:03N 50°08' W 125°21'0 7.7
2018-Oct-19 09:00N 50°09' W 125°21'3 7.0
2018-Oct-19 08:30N 50°12' W 125°22'3 7.4
2018-Oct-19 08:03N 50°15' W 125°23'0 8.3
2018-Oct-19 08:00N 50°16' W 125°24'5 9.7
2018-Oct-19 07:30N 50°20' W 125°26'910.1
2018-Oct-19 06:39N 50°23' W 125°39'19 9.9
2018-Oct-19 04:44N 50°28' W 126°08'6 9.4
2018-Oct-19 04:05N 50°29' W 126°17'110.4
2018-Oct-19 04:01N 50°30' W 126°18'1 9.8
2018-Oct-19 03:56N 50°30' W 126°19'4 9.8
2018-Oct-19 03:30N 50°30' W 126°26'4 9.6
2018-Oct-19 03:03N 50°31' W 126°33'110.1
2018-Oct-19 03:00N 50°31' W 126°33'5 9.3
2018-Oct-19 02:29N 50°32' W 126°41'4 9.5
2018-Oct-19 02:03N 50°33' W 126°47'0 9.1
2018-Oct-19 02:00N 50°33' W 126°48'5 9.7
2018-Oct-19 01:30N 50°34' W 126°55'1 1.7
2018-Oct-19 01:00N 50°35' W 126°56'0 0.0
2018-Oct-18 21:48N 50°35' W 126°56'0 0.1
2018-Oct-18 21:24N 50°35' W 126°56'0 0.1
2018-Oct-18 20:53N 50°35' W 126°56'0 0.0
2018-Oct-18 19:52N 50°35' W 126°56'1 3.1
2018-Oct-18 19:30N 50°34' W 126°55'4 7.7
2018-Oct-18 19:01N 50°34' W 126°49'0 6.9
2018-Oct-18 19:00N 50°34' W 126°49'3 6.6
2018-Oct-18 18:30N 50°34' W 126°54'3 7.5
2018-Oct-18 18:03N 50°36' W 126°58'0 7.6
2018-Oct-18 18:00N 50°36' W 126°58'5 8.3
2018-Oct-18 17:26N 50°36' W 126°50'3 8.7
2018-Oct-18 17:03N 50°36' W 126°45'0 1.9
2018-Oct-18 17:00N 50°36' W 126°45'3 5.2
2018-Oct-18 16:22N 50°34' W 126°41'0 0.6
2018-Oct-18 16:03N 50°34' W 126°41'0 4.9
2018-Oct-18 15:58N 50°33' W 126°41'0 0.7
2018-Oct-18 15:30N 50°33' W 126°41'0 0.5
2018-Oct-18 15:04N 50°33' W 126°41'0 0.6
2018-Oct-18 14:56N 50°33' W 126°41'1 1.5
2018-Oct-18 14:30N 50°33' W 126°42'4 7.6
2018-Oct-18 14:00N 50°31' W 126°37'5 9.3
2018-Oct-18 13:30N 50°30' W 126°30'4 9.6
2018-Oct-18 13:03N 50°30' W 126°23'6 9.8
2018-Oct-18 12:29N 50°29' W 126°14'1910.1
2018-Oct-18 10:33N 50°22' W 125°46'10 9.9
2018-Oct-18 09:35N 50°21' W 125°31'210.5
2018-Oct-18 09:24N 50°20' W 125°28'3 7.9
2018-Oct-18 09:03N 50°18' W 125°25'0 9.7
2018-Oct-18 09:00N 50°18' W 125°25'5 9.5
2018-Oct-18 08:30N 50°13' W 125°23'4 9.4
2018-Oct-18 08:03N 50°09' W 125°21'0 8.9
2018-Oct-18 08:00N 50°09' W 125°21'4 7.5
2018-Oct-18 07:30N 50°06' W 125°18'3 7.8
2018-Oct-18 07:03N 50°03' W 125°14'0 7.5
2018-Oct-18 07:00N 50°03' W 125°14'3 6.8
2018-Oct-18 06:30N 49°60' W 125°12'3 7.2
2018-Oct-18 06:02N 49°57' W 125°08'0 7.7
2018-Oct-18 06:00N 49°57' W 125°08'4 8.0
2018-Oct-18 05:30N 49°54' W 125°04'4 8.4
2018-Oct-18 05:03N 49°52' W 124°59'0 8.6
2018-Oct-18 05:00N 49°51' W 124°59'4 8.8
2018-Oct-18 04:30N 49°49' W 124°54'4 8.6
2018-Oct-18 04:03N 49°46' W 124°49'0 8.7
2018-Oct-18 04:00N 49°46' W 124°48'4 8.7
2018-Oct-18 03:30N 49°43' W 124°44'4 8.8
2018-Oct-18 03:03N 49°40' W 124°39'0 8.3
2018-Oct-18 03:00N 49°40' W 124°39'4 8.6
2018-Oct-18 02:30N 49°36' W 124°35'4 8.7
2018-Oct-18 02:02N 49°33' W 124°30'1 8.7
2018-Oct-18 01:55N 49°33' W 124°29'4 8.9
2018-Oct-18 01:25N 49°29' W 124°25'4 9.1
2018-Oct-18 00:57N 49°26' W 124°20'4 8.7
2018-Oct-18 00:30N 49°24' W 124°16'4 8.3
2018-Oct-18 00:03N 49°21' W 124°12'0 9.0
2018-Oct-18 00:00N 49°21' W 124°11'4 9.0
2018-Oct-17 23:30N 49°19' W 124°05'4 8.9
2018-Oct-17 23:03N 49°17' W 123°59'0 8.7
2018-Oct-17 23:00N 49°17' W 123°59'4 8.9
2018-Oct-17 22:30N 49°15' W 123°52'4 8.8
2018-Oct-17 22:03N 49°14' W 123°47'0 8.9
2018-Oct-17 22:00N 49°13' W 123°46'5 9.2
2018-Oct-17 21:30N 49°11' W 123°41'4 9.0
2018-Oct-17 21:03N 49°08' W 123°36'0 9.3
2018-Oct-17 21:00N 49°08' W 123°36'5 9.6
2018-Oct-17 20:30N 49°03' W 123°35'4 8.7
2018-Oct-17 20:02N 48°59' W 123°35'010.0
2018-Oct-17 20:00N 48°58' W 123°35'3 5.2
2018-Oct-17 19:23N 48°56' W 123°32'0 0.0
2018-Oct-17 18:59N 48°56' W 123°32'0 0.0
2018-Oct-17 17:52N 48°56' W 123°32'0 0.0
2018-Oct-17 17:27N 48°56' W 123°32'0 0.1
2018-Oct-17 17:00N 48°56' W 123°32'0 0.0
2018-Oct-17 16:29N 48°56' W 123°32'0 0.0
2018-Oct-17 16:02N 48°56' W 123°32'0 0.2
2018-Oct-17 16:00N 48°56' W 123°32'0 0.0
2018-Oct-17 15:29N 48°56' W 123°32'0 0.0
2018-Oct-17 14:53N 48°56' W 123°32'2 2.5
2018-Oct-17 14:03N 48°55' W 123°29'3 4.6
2018-Oct-17 13:30N 48°53' W 123°26'2 4.8
2018-Oct-17 13:02N 48°52' W 123°24'0 4.6
2018-Oct-17 13:00N 48°51' W 123°24'3 5.1
2018-Oct-17 12:29N 48°50' W 123°20'2 4.2
2018-Oct-17 12:03N 48°48' W 123°20'0 4.4
2018-Oct-17 12:00N 48°48' W 123°20'3 5.5
2018-Oct-17 11:30N 48°45' W 123°19'4 8.2
2018-Oct-17 11:03N 48°42' W 123°16'0 7.4
2018-Oct-17 11:00N 48°42' W 123°16'4 7.2
2018-Oct-17 10:30N 48°39' W 123°14'3 6.6
2018-Oct-17 10:03N 48°36' W 123°13'0 5.7
2018-Oct-17 10:00N 48°35' W 123°13'3 5.5
2018-Oct-17 09:30N 48°33' W 123°11'3 5.7
2018-Oct-17 09:03N 48°30' W 123°10'0 5.7
2018-Oct-17 09:00N 48°30' W 123°10'3 6.0
2018-Oct-17 08:30N 48°27' W 123°10'3 6.3
2018-Oct-17 08:03N 48°25' W 123°13'0 5.9
2018-Oct-17 08:00N 48°25' W 123°13'3 6.6
2018-Oct-17 07:30N 48°23' W 123°18'3 6.0
2018-Oct-17 07:03N 48°23' W 123°22'0 7.0
2018-Oct-17 07:00N 48°24' W 123°22'2 4.1
2018-Oct-17 06:30N 48°25' W 123°23'0 0.0
2018-Oct-16 19:24N 48°25' W 123°22'0 0.0
2018-Oct-16 17:54N 48°25' W 123°22'0 0.0
2018-Oct-16 17:13N 48°25' W 123°22'0 0.2
2018-Oct-16 17:02N 48°25' W 123°22'0 0.5
2018-Oct-16 16:57N 48°25' W 123°22'0 0.1
2018-Oct-16 16:00N 48°25' W 123°22'0 0.0
2018-Oct-16 15:24N 48°25' W 123°22'0 0.0
2018-Oct-16 15:03N 48°25' W 123°22'0 0.1
2018-Oct-16 14:56N 48°25' W 123°22'3 3.7
2018-Oct-16 14:02N 48°23' W 123°19'0 7.2
2018-Oct-16 14:00N 48°23' W 123°18'3 6.4
2018-Oct-16 13:30N 48°25' W 123°14'3 7.2
2018-Oct-16 13:04N 48°25' W 123°09'0 8.8
2018-Oct-16 13:01N 48°25' W 123°09'4 8.5
2018-Oct-16 12:30N 48°25' W 123°02'4 8.1
2018-Oct-16 12:03N 48°25' W 122°57'0 8.3
2018-Oct-16 12:00N 48°26' W 122°57'5 9.3
2018-Oct-16 11:30N 48°30' W 122°57'3 7.0
2018-Oct-16 11:04N 48°33' W 123°00'0 4.5
2018-Oct-16 11:01N 48°33' W 123°00'0 0.8
2018-Oct-16 10:29N 48°32' W 123°01'0 0.0
2018-Oct-16 10:02N 48°32' W 123°01'0 0.0
2018-Oct-16 09:53N 48°32' W 123°01'0 0.0
2018-Oct-16 09:29N 48°32' W 123°01'0 0.0
2018-Oct-16 09:02N 48°32' W 123°01'0 0.0
2018-Oct-16 08:59N 48°32' W 123°01'0 0.0
2018-Oct-16 08:26N 48°32' W 123°01'0 0.0
2018-Oct-16 08:02N 48°32' W 123°01'0 0.0
2018-Oct-16 07:59N 48°32' W 123°01'0 0.0
2018-Oct-16 07:29N 48°32' W 123°01'0 0.0
2018-Oct-16 06:53N 48°32' W 123°01'0 0.0
2018-Oct-16 06:26N 48°32' W 123°01'0 0.0
2018-Oct-16 06:02N 48°32' W 123°01'0 0.0
2018-Oct-16 05:59N 48°32' W 123°01'0 0.0
2018-Oct-16 05:29N 48°32' W 123°01'0 0.0
2018-Oct-16 05:02N 48°32' W 123°01'0 0.0
2018-Oct-16 04:56N 48°32' W 123°01'0 0.0
2018-Oct-16 04:29N 48°32' W 123°01'0 0.0
2018-Oct-16 04:02N 48°32' W 123°01'0 0.8
2018-Oct-16 03:59N 48°32' W 123°01'0 0.1
2018-Oct-16 03:29N 48°32' W 123°01'0 0.0
2018-Oct-16 03:02N 48°32' W 123°01'0 0.0
2018-Oct-16 02:59N 48°32' W 123°01'0 0.0
2018-Oct-16 02:29N 48°32' W 123°01'0 0.1
2018-Oct-16 02:02N 48°32' W 123°01'0 0.8
2018-Oct-16 01:59N 48°32' W 123°01'0 0.0
2018-Oct-16 01:29N 48°32' W 123°01'0 0.0
2018-Oct-16 00:59N 48°32' W 123°01'0 0.0
2018-Oct-16 00:26N 48°32' W 123°01'0 0.0
2018-Oct-16 00:02N 48°32' W 123°01'0 0.0
2018-Oct-15 23:59N 48°32' W 123°01'0 0.1
2018-Oct-15 23:26N 48°32' W 123°01'0 0.1
2018-Oct-15 23:02N 48°32' W 123°01'0 0.0
2018-Oct-15 22:59N 48°32' W 123°01'0 0.0
2018-Oct-15 22:29N 48°32' W 123°01'0 0.0
2018-Oct-15 21:59N 48°32' W 123°01'0 0.0
2018-Oct-15 21:29N 48°32' W 123°01'0 0.0
2018-Oct-15 20:56N 48°32' W 123°01'0 0.1
2018-Oct-15 20:26N 48°32' W 123°01'0 0.0
2018-Oct-15 20:03N 48°32' W 123°01'0 1.2
2018-Oct-15 20:01N 48°32' W 123°01'3 5.2
2018-Oct-15 19:30N 48°31' W 122°57'4 9.1
2018-Oct-15 19:03N 48°27' W 122°57'0 6.8
2018-Oct-15 19:00N 48°27' W 122°57'3 5.3
2018-Oct-15 18:30N 48°25' W 122°59'510.3
2018-Oct-15 18:03N 48°28' W 123°05'010.2
2018-Oct-15 18:00N 48°28' W 123°05'4 8.8
2018-Oct-15 17:30N 48°31' W 123°10'4 9.5
2018-Oct-15 17:03N 48°35' W 123°13'0 9.7
2018-Oct-15 17:00N 48°35' W 123°13'4 8.0
2018-Oct-15 16:31N 48°39' W 123°14'3 6.0
2018-Oct-15 16:03N 48°42' W 123°13'1 8.5
2018-Oct-15 16:00N 48°42' W 123°13'4 8.4
2018-Oct-15 15:30N 48°43' W 123°07'3 7.0
2018-Oct-15 15:03N 48°44' W 123°02'0 6.0
2018-Oct-15 15:00N 48°45' W 123°02'4 8.3
2018-Oct-15 14:30N 48°45' W 122°56'2 2.9
2018-Oct-15 13:54N 48°46' W 122°54'0 0.0
2018-Oct-15 12:58N 48°46' W 122°54'0 0.0
2018-Oct-15 11:53N 48°46' W 122°54'0 0.0
2018-Oct-15 11:20N 48°46' W 122°54'0 0.1
2018-Oct-15 10:52N 48°46' W 122°54'0 0.0
2018-Oct-15 10:24N 48°46' W 122°54'0 0.1
2018-Oct-15 09:58N 48°46' W 122°54'0 0.0
2018-Oct-15 09:25N 48°46' W 122°54'0 0.0
2018-Oct-15 08:57N 48°46' W 122°54'0 0.0
2018-Oct-15 07:20N 48°46' W 122°54'0 0.0
2018-Oct-15 07:03N 48°46' W 122°54'0 0.2
2018-Oct-15 07:00N 48°46' W 122°54'0 0.1
2018-Oct-15 06:30N 48°46' W 122°54'0 0.0
2018-Oct-15 05:45N 48°46' W 122°54'0 0.0
2018-Oct-15 04:43N 48°46' W 122°54'0 0.0
2018-Oct-15 04:20N 48°46' W 122°54'0 0.0
2018-Oct-15 03:28N 48°46' W 122°54'0 0.1
2018-Oct-15 02:44N 48°46' W 122°54'1 4.9
2018-Oct-15 02:30N 48°45' W 122°52'1 1.1
2018-Oct-15 01:47N 48°45' W 122°54'0 0.0
2018-Oct-15 01:10N 48°45' W 122°54'0 0.0
2018-Oct-15 00:52N 48°45' W 122°54'0 0.0
2018-Oct-15 00:28N 48°45' W 122°54'0 0.0
2018-Oct-15 00:01N 48°45' W 122°54'0 0.0
2018-Oct-14 23:40N 48°45' W 122°54'0 0.0
2018-Oct-14 23:13N 48°45' W 122°54'0 0.2
2018-Oct-14 22:58N 48°45' W 122°54'0 0.0
2018-Oct-14 22:28N 48°45' W 122°54'0 0.0
2018-Oct-14 21:55N 48°45' W 122°54'0 0.0
2018-Oct-14 21:28N 48°45' W 122°54'0 0.0
2018-Oct-14 21:01N 48°45' W 122°54'0 0.1
2018-Oct-14 20:52N 48°45' W 122°54'0 0.0
2018-Oct-14 20:04N 48°45' W 122°54'0 0.0
2018-Oct-14 19:49N 48°45' W 122°54'0 0.0
2018-Oct-14 19:28N 48°45' W 122°54'2 4.6
2018-Oct-14 19:03N 48°44' W 122°56'1 9.6
2018-Oct-14 19:00N 48°44' W 122°57'4 8.7
2018-Oct-14 18:30N 48°40' W 123°01'4 8.4
2018-Oct-14 18:03N 48°38' W 123°06'0 8.7
2018-Oct-14 18:00N 48°38' W 123°06'3 5.2
2018-Oct-14 17:30N 48°39' W 123°10'3 6.9
2018-Oct-14 17:03N 48°38' W 123°06'0 9.0
2018-Oct-14 17:00N 48°37' W 123°05'3 6.1
2018-Oct-14 16:30N 48°35' W 123°02'3 6.3
2018-Oct-14 16:03N 48°38' W 123°04'0 6.1
2018-Oct-14 16:00N 48°38' W 123°03'3 5.6
2018-Oct-14 15:30N 48°40' W 123°01'3 5.9
2018-Oct-14 15:01N 48°42' W 122°58'0 5.7
2018-Oct-14 15:00N 48°43' W 122°58'3 6.0
2018-Oct-14 14:30N 48°44' W 122°54'3 6.6
2018-Oct-14 14:00N 48°42' W 122°50'4 8.6
2018-Oct-14 13:30N 48°40' W 122°44'511.4
2018-Oct-14 13:03N 48°35' W 122°45'112.0
2018-Oct-14 13:00N 48°35' W 122°45'610.9
2018-Oct-14 12:30N 48°29' W 122°44'510.1
2018-Oct-14 12:01N 48°24' W 122°44'3 9.0
2018-Oct-14 11:39N 48°21' W 122°45'15 7.7
2018-Oct-14 09:39N 48°06' W 122°39'210.5
2018-Oct-14 09:26N 48°04' W 122°38'710.3
2018-Oct-14 08:47N 47°58' W 122°34'311.1
2018-Oct-14 08:30N 47°56' W 122°30'510.4
2018-Oct-14 08:03N 47°52' W 122°28'110.4
2018-Oct-14 08:00N 47°51' W 122°27'510.1
2018-Oct-14 07:30N 47°46' W 122°26'4 9.5
2018-Oct-14 07:03N 47°42' W 122°27'0 9.3
2018-Oct-14 07:00N 47°42' W 122°27'4 8.4
2018-Oct-14 06:31N 47°38' W 122°25'1 2.7
2018-Oct-14 06:03N 47°38' W 122°23'0 0.0
2018-Oct-14 05:57N 47°38' W 122°23'0 0.0
2018-Oct-14 05:27N 47°38' W 122°23'0 0.0
2018-Oct-14 05:03N 47°38' W 122°23'  
Track history (hours):
 
Tides and Currents Weather Stations Pressure Air Temp Water Temp Dewpoint Dewpoint Depression Visibility Wind Speed Wind Dir Waves Ship Positions

National Geographic Sea Bird

Owner: Lindblad Expeditions LLC, SEATTLE, WA. More information available from US FCC via Universal Licensing System and Coast Guard Vessel Documentation Center.

Last reported at 2018-Oct-24 05:03 UTC. Time now 2018-Oct-24 05:24 UTC.
Position N 49°12' W 123°39'.

Length 50 m; draft 2.7 m.

Type: Passenger vessel. MMSI: 366892350.

Date/timePositionNaut miles runAvg speedWind from/ knotsBaromVisibWave heightAir tempDewpointWater temp
2018-Oct-24 05:03N 49°12' W 123°39'0 8.9
2018-Oct-24 05:01N 49°13' W 123°40'4 8.7
2018-Oct-24 04:31N 49°16' W 123°44'4 8.6
2018-Oct-24 04:04N 49°19' W 123°48'0 8.8
2018-Oct-24 04:01N 49°19' W 123°49'4 8.4
2018-Oct-24 03:30N 49°22' W 123°53'4 8.3
2018-Oct-24 03:03N 49°25' W 123°57'0 8.6
2018-Oct-24 03:00N 49°25' W 123°58'8 8.3
2018-Oct-24 02:06N 49°31' W 124°06'1 7.9
2018-Oct-24 02:01N 49°31' W 124°06'1 8.2
2018-Oct-24 01:50N 49°32' W 124°07'3 8.7
2018-Oct-24 01:30N 49°35' W 124°10'4 9.1
2018-Oct-24 01:00N 49°39' W 124°13'5 9.2
2018-Oct-24 00:30N 49°42' W 124°19'4 9.2
2018-Oct-24 00:03N 49°45' W 124°23'0 9.3
2018-Oct-24 00:01N 49°45' W 124°24'5 9.3
2018-Oct-23 23:31N 49°46' W 124°31'4 9.0
2018-Oct-23 23:03N 49°50' W 124°34'0 9.5
2018-Oct-23 23:00N 49°50' W 124°35'5 9.4
2018-Oct-23 22:30N 49°54' W 124°39'4 9.4
2018-Oct-23 22:04N 49°57' W 124°44'0 9.0
2018-Oct-23 22:01N 49°57' W 124°44'5 9.4
2018-Oct-23 21:30N 49°60' W 124°50'4 8.5
2018-Oct-23 21:03N 50°03' W 124°52'110.7
2018-Oct-23 21:00N 50°04' W 124°51'510.3
2018-Oct-23 20:31N 50°08' W 124°46'4 9.1
2018-Oct-23 20:03N 50°09' W 124°40'0 4.5
2018-Oct-23 20:01N 50°09' W 124°40'0 0.0
2018-Oct-23 19:31N 50°09' W 124°40'0 0.0
2018-Oct-23 19:03N 50°09' W 124°40'0 0.8
2018-Oct-23 19:00N 50°09' W 124°40'0 0.1
2018-Oct-23 18:31N 50°09' W 124°40'0 0.0
2018-Oct-23 18:04N 50°09' W 124°40'0 0.7
2018-Oct-23 18:00N 50°09' W 124°40'0 0.1
2018-Oct-23 17:31N 50°09' W 124°40'0 0.0
2018-Oct-23 17:04N 50°09' W 124°40'0 0.8
2018-Oct-23 17:01N 50°09' W 124°40'0 0.0
2018-Oct-23 16:31N 50°09' W 124°40'2 4.8
2018-Oct-23 16:04N 50°09' W 124°43'0 9.2
2018-Oct-23 16:01N 50°09' W 124°44'510.2
2018-Oct-23 15:31N 50°05' W 124°49'510.0
2018-Oct-23 15:03N 50°01' W 124°54'010.2
2018-Oct-23 15:01N 50°01' W 124°55'5 9.6
2018-Oct-23 14:30N 49°58' W 125°01'7 7.2
2018-Oct-23 13:31N 49°60' W 125°12'3 6.3
2018-Oct-23 13:03N 50°02' W 125°14'0 7.1
2018-Oct-23 13:00N 50°02' W 125°14'4 8.5
2018-Oct-23 12:31N 50°06' W 125°18'4 7.9
2018-Oct-23 12:04N 50°09' W 125°21'0 9.0
2018-Oct-23 12:01N 50°09' W 125°21'510.1
2018-Oct-23 11:31N 50°14' W 125°23'510.3
2018-Oct-23 11:03N 50°19' W 125°25'1 9.9
2018-Oct-23 10:59N 50°19' W 125°25'2 3.4
2018-Oct-23 10:31N 50°21' W 125°25'0 1.0
2018-Oct-23 10:03N 50°21' W 125°26'0 5.1
2018-Oct-23 10:00N 50°21' W 125°27'9 4.9
2018-Oct-23 08:06N 50°22' W 125°41'1 6.0
2018-Oct-23 08:01N 50°22' W 125°42'24 9.0
2018-Oct-23 05:19N 50°29' W 126°18'2 7.7
2018-Oct-23 05:01N 50°30' W 126°22'0 6.9
2018-Oct-23 05:00N 50°30' W 126°22'4 7.2
2018-Oct-23 04:30N 50°30' W 126°28'3 7.1
2018-Oct-23 04:02N 50°30' W 126°33'0 7.7
2018-Oct-23 03:58N 50°30' W 126°34'3 7.2
2018-Oct-23 03:30N 50°31' W 126°39'4 7.3
2018-Oct-23 02:59N 50°33' W 126°44'3 7.0
2018-Oct-23 02:30N 50°34' W 126°49'3 6.8
2018-Oct-23 02:02N 50°34' W 126°54'0 5.8
2018-Oct-23 02:00N 50°34' W 126°54'1 0.2
2018-Oct-22 19:14N 50°35' W 126°56'1 3.5
2018-Oct-22 19:00N 50°34' W 126°55'5 9.8
2018-Oct-22 18:28N 50°34' W 126°47'3 7.2
2018-Oct-22 18:00N 50°33' W 126°42'2 4.1
2018-Oct-22 17:28N 50°35' W 126°43'3 7.1
2018-Oct-22 17:02N 50°36' W 126°47'0 1.1
2018-Oct-22 17:00N 50°36' W 126°47'0 0.4
2018-Oct-22 16:28N 50°36' W 126°47'3 6.3
2018-Oct-22 16:03N 50°36' W 126°43'0 6.0
2018-Oct-22 16:00N 50°35' W 126°43'2 3.7
2018-Oct-22 15:30N 50°36' W 126°46'0 0.7
2018-Oct-22 15:01N 50°36' W 126°46'0 5.9
2018-Oct-22 15:00N 50°36' W 126°46'3 5.7
2018-Oct-22 14:27N 50°34' W 126°42'7 7.6
2018-Oct-22 13:30N 50°30' W 126°32'3 5.9
2018-Oct-22 13:02N 50°30' W 126°28'0 6.0
2018-Oct-22 13:00N 50°30' W 126°27'3 6.2
2018-Oct-22 12:29N 50°30' W 126°22'3 6.2
2018-Oct-22 12:03N 50°29' W 126°18'0 6.0
2018-Oct-22 11:58N 50°29' W 126°17'3 6.1
2018-Oct-22 11:27N 50°29' W 126°13'3 6.7
2018-Oct-22 10:57N 50°28' W 126°07'16 6.8
2018-Oct-22 08:39N 50°22' W 125°44'1 9.0
2018-Oct-22 08:29N 50°22' W 125°42'7 6.8
2018-Oct-22 07:29N 50°21' W 125°32'3 6.3
2018-Oct-22 07:01N 50°20' W 125°27'0 7.2
2018-Oct-22 06:57N 50°20' W 125°26'3 7.3
2018-Oct-22 06:29N 50°17' W 125°25'4 8.2
2018-Oct-22 06:01N 50°14' W 125°23'0 8.6
2018-Oct-22 06:00N 50°13' W 125°23'4 8.8
2018-Oct-22 05:30N 50°09' W 125°21'3 7.0
2018-Oct-22 05:03N 50°07' W 125°18'0 5.4
2018-Oct-22 05:00N 50°06' W 125°18'4 8.0
2018-Oct-22 04:31N 50°03' W 125°15'4 9.6
2018-Oct-22 04:03N 49°59' W 125°12'0 9.8
2018-Oct-22 04:00N 49°59' W 125°11'4 7.9
2018-Oct-22 03:30N 49°58' W 125°05'4 8.3
2018-Oct-22 03:03N 49°59' W 124°60'0 8.3
2018-Oct-22 03:00N 49°60' W 124°59'4 8.6
2018-Oct-22 02:30N 50°02' W 124°54'4 9.4
2018-Oct-22 02:04N 50°05' W 124°49'0 8.7
2018-Oct-22 02:00N 50°05' W 124°48'4 7.0
2018-Oct-22 01:29N 50°06' W 124°43'1 3.0
2018-Oct-22 01:01N 50°07' W 124°42'0 0.0
2018-Oct-22 00:58N 50°07' W 124°42'0 0.0
2018-Oct-22 00:28N 50°07' W 124°42'0 0.0
2018-Oct-22 00:01N 50°07' W 124°42'0 0.1
2018-Oct-21 23:58N 50°07' W 124°42'0 0.0
2018-Oct-21 23:28N 50°07' W 124°42'0 0.0
2018-Oct-21 23:01N 50°07' W 124°42'0 0.1
2018-Oct-21 22:58N 50°07' W 124°42'0 0.0
2018-Oct-21 22:28N 50°07' W 124°42'0 0.0
2018-Oct-21 21:58N 50°07' W 124°42'0 0.0
2018-Oct-21 20:58N 50°07' W 124°42'0 0.0
2018-Oct-21 20:28N 50°07' W 124°42'0 0.0
2018-Oct-21 20:01N 50°07' W 124°42'0 0.0
2018-Oct-21 19:58N 50°07' W 124°42'0 0.8
2018-Oct-21 19:30N 50°07' W 124°42'4 7.8
2018-Oct-21 19:03N 50°05' W 124°47'0 8.5
2018-Oct-21 19:00N 50°05' W 124°48'4 8.2
2018-Oct-21 18:30N 50°08' W 124°53'4 8.9
2018-Oct-21 18:03N 50°11' W 124°56'0 9.1
2018-Oct-21 18:00N 50°12' W 124°56'4 8.5
2018-Oct-21 17:30N 50°16' W 124°59'4 8.9
2018-Oct-21 17:03N 50°19' W 124°55'0 9.0
2018-Oct-21 17:00N 50°19' W 124°55'5 9.0
2018-Oct-21 16:30N 50°18' W 124°48'4 8.4
2018-Oct-21 16:03N 50°18' W 124°42'0 8.9
2018-Oct-21 16:00N 50°18' W 124°41'4 8.8
2018-Oct-21 15:30N 50°14' W 124°38'4 8.7
2018-Oct-21 15:03N 50°10' W 124°40'0 9.5
2018-Oct-21 15:00N 50°10' W 124°41'7 7.2
2018-Oct-21 14:03N 50°05' W 124°48'4 7.6
2018-Oct-21 13:30N 50°03' W 124°53'4 7.8
2018-Oct-21 13:03N 49°60' W 124°50'0 7.6
2018-Oct-21 13:00N 49°59' W 124°50'4 8.4
2018-Oct-21 12:30N 49°57' W 124°45'4 8.8
2018-Oct-21 12:03N 49°54' W 124°40'0 8.8
2018-Oct-21 12:00N 49°54' W 124°39'4 8.8
2018-Oct-21 11:30N 49°51' W 124°35'4 8.5
2018-Oct-21 11:03N 49°47' W 124°33'1 8.5
2018-Oct-21 11:00N 49°47' W 124°32'4 8.5
2018-Oct-21 10:30N 49°46' W 124°26'4 8.0
2018-Oct-21 10:03N 49°43' W 124°21'0 7.8
2018-Oct-21 10:00N 49°43' W 124°21'4 8.2
2018-Oct-21 09:29N 49°40' W 124°16'4 8.1
2018-Oct-21 09:02N 49°38' W 124°12'2 8.1
2018-Oct-21 08:48N 49°36' W 124°11'3 8.0
2018-Oct-21 08:28N 49°34' W 124°09'3 7.8
2018-Oct-21 08:03N 49°31' W 124°06'0 8.4
2018-Oct-21 08:00N 49°31' W 124°05'4 8.3
2018-Oct-21 07:30N 49°27' W 124°01'4 8.2
2018-Oct-21 07:03N 49°25' W 123°57'0 8.3
2018-Oct-21 07:00N 49°25' W 123°57'4 8.3
2018-Oct-21 06:30N 49°22' W 123°52'4 8.3
2018-Oct-21 06:03N 49°19' W 123°48'0 7.9
2018-Oct-21 06:00N 49°19' W 123°47'4 8.3
2018-Oct-21 05:30N 49°16' W 123°43'4 8.3
2018-Oct-21 05:03N 49°14' W 123°38'0 8.5
2018-Oct-21 05:00N 49°14' W 123°38'4 8.3
2018-Oct-21 04:30N 49°11' W 123°33'4 8.5
2018-Oct-21 04:03N 49°08' W 123°28'0 8.2
2018-Oct-21 04:00N 49°08' W 123°28'4 7.9
2018-Oct-21 03:30N 49°06' W 123°23'4 7.8
2018-Oct-21 03:03N 49°06' W 123°18'110.5
2018-Oct-21 03:00N 49°07' W 123°17'4 8.5
2018-Oct-21 02:30N 49°07' W 123°11'0 0.1
2018-Oct-21 02:03N 49°07' W 123°11'0 0.0
2018-Oct-21 02:00N 49°07' W 123°11'0 0.0
2018-Oct-21 01:30N 49°07' W 123°11'0 0.0
2018-Oct-21 01:03N 49°07' W 123°11'0 0.0
2018-Oct-21 01:00N 49°07' W 123°11'0 0.0
2018-Oct-21 00:30N 49°07' W 123°11'0 0.0
2018-Oct-21 00:03N 49°07' W 123°11'0 0.0
2018-Oct-21 00:00N 49°07' W 123°11'0 0.0
2018-Oct-20 23:29N 49°07' W 123°11'0 0.0
2018-Oct-20 23:03N 49°07' W 123°11'0 0.0
2018-Oct-20 23:00N 49°07' W 123°11'0 0.0
2018-Oct-20 22:30N 49°07' W 123°11'0 0.0
2018-Oct-20 22:03N 49°07' W 123°11'0 0.0
2018-Oct-20 22:00N 49°07' W 123°11'0 0.0
2018-Oct-20 21:30N 49°07' W 123°11'0 0.0
2018-Oct-20 21:03N 49°07' W 123°11'0 0.0
2018-Oct-20 21:00N 49°07' W 123°11'0 0.0
2018-Oct-20 20:30N 49°07' W 123°11'0 0.0
2018-Oct-20 20:03N 49°07' W 123°11'0 0.0
2018-Oct-20 20:00N 49°07' W 123°11'0 0.0
2018-Oct-20 19:30N 49°07' W 123°11'0 0.0
2018-Oct-20 19:03N 49°07' W 123°11'0 0.1
2018-Oct-20 19:00N 49°07' W 123°11'0 0.0
2018-Oct-20 18:30N 49°07' W 123°11'0 0.0
2018-Oct-20 18:03N 49°07' W 123°11'0 0.0
2018-Oct-20 18:00N 49°07' W 123°11'0 0.0
2018-Oct-20 17:30N 49°07' W 123°11'0 0.0
2018-Oct-20 17:03N 49°07' W 123°11'0 0.1
2018-Oct-20 16:59N 49°07' W 123°11'0 0.0
2018-Oct-20 16:30N 49°07' W 123°11'0 0.0
2018-Oct-20 16:03N 49°07' W 123°11'0 0.0
2018-Oct-20 16:00N 49°07' W 123°11'0 0.0
2018-Oct-20 15:30N 49°07' W 123°11'0 0.0
2018-Oct-20 15:03N 49°07' W 123°11'0 0.0
2018-Oct-20 15:00N 49°07' W 123°11'0 0.0
2018-Oct-20 14:30N 49°07' W 123°11'3 3.1
2018-Oct-20 13:30N 49°07' W 123°15'3 7.1
2018-Oct-20 13:03N 49°06' W 123°20'0 8.6
2018-Oct-20 13:00N 49°05' W 123°20'3 5.7
2018-Oct-20 12:30N 49°06' W 123°24'3 6.6
2018-Oct-20 12:03N 49°08' W 123°28'0 7.5
2018-Oct-20 12:00N 49°08' W 123°28'4 7.0
2018-Oct-20 11:30N 49°10' W 123°32'3 7.1
2018-Oct-20 11:03N 49°12' W 123°36'0 7.1
2018-Oct-20 11:00N 49°13' W 123°36'4 7.3
2018-Oct-20 10:30N 49°15' W 123°40'3 7.3
2018-Oct-20 10:03N 49°17' W 123°44'0 7.0
2018-Oct-20 10:00N 49°18' W 123°44'4 7.4
2018-Oct-20 09:30N 49°20' W 123°49'3 7.4
2018-Oct-20 09:03N 49°22' W 123°52'0 7.5
2018-Oct-20 09:00N 49°22' W 123°53'4 7.3
2018-Oct-20 08:30N 49°25' W 123°57'3 7.7
2018-Oct-20 08:03N 49°27' W 124°01'0 7.9
2018-Oct-20 08:00N 49°28' W 124°01'4 7.6
2018-Oct-20 07:29N 49°31' W 124°05'4 7.8
2018-Oct-20 07:00N 49°34' W 124°09'4 8.0
2018-Oct-20 06:30N 49°37' W 124°12'4 8.2
2018-Oct-20 06:03N 49°40' W 124°16'0 8.1
2018-Oct-20 06:00N 49°40' W 124°16'4 8.0
2018-Oct-20 05:30N 49°43' W 124°21'4 7.9
2018-Oct-20 05:03N 49°45' W 124°25'0 8.1
2018-Oct-20 05:00N 49°45' W 124°26'4 7.9
2018-Oct-20 04:30N 49°47' W 124°32'3 7.6
2018-Oct-20 04:03N 49°49' W 124°34'0 7.6
2018-Oct-20 04:00N 49°50' W 124°34'4 8.1
2018-Oct-20 03:30N 49°53' W 124°38'4 8.4
2018-Oct-20 03:03N 49°56' W 124°42'0 8.6
2018-Oct-20 03:00N 49°56' W 124°43'4 8.4
2018-Oct-20 02:30N 49°58' W 124°48'4 8.1
2018-Oct-20 02:03N 50°01' W 124°52'0 7.2
2018-Oct-20 02:00N 50°01' W 124°52'4 8.4
2018-Oct-20 01:30N 50°05' W 124°52'4 9.6
2018-Oct-20 01:03N 50°10' W 124°54'0 9.3
2018-Oct-20 01:00N 50°10' W 124°54'5 9.3
2018-Oct-20 00:30N 50°14' W 124°58'4 8.0
2018-Oct-20 00:03N 50°17' W 124°57'110.1
2018-Oct-20 00:00N 50°18' W 124°57'5 9.2
2018-Oct-19 23:30N 50°18' W 124°50'4 9.5
2018-Oct-19 23:03N 50°19' W 124°43'110.2
2018-Oct-19 23:00N 50°18' W 124°42'3 5.1
2018-Oct-19 22:31N 50°17' W 124°40'3 6.7
2018-Oct-19 22:03N 50°14' W 124°38'0 9.4
2018-Oct-19 22:00N 50°13' W 124°38'4 9.0
2018-Oct-19 21:30N 50°10' W 124°42'4 9.0
2018-Oct-19 21:03N 50°07' W 124°47'0 9.4
2018-Oct-19 21:00N 50°06' W 124°47'3 6.2
2018-Oct-19 20:30N 50°07' W 124°42'1 1.7
2018-Oct-19 20:03N 50°07' W 124°42'0 0.0
2018-Oct-19 20:00N 50°07' W 124°42'0 0.0
2018-Oct-19 19:30N 50°07' W 124°42'0 0.1
2018-Oct-19 19:03N 50°07' W 124°42'0 0.1
2018-Oct-19 19:00N 50°07' W 124°42'0 0.0
2018-Oct-19 18:30N 50°07' W 124°42'0 0.0
2018-Oct-19 18:03N 50°07' W 124°42'0 0.0
2018-Oct-19 18:00N 50°07' W 124°42'0 0.0
2018-Oct-19 17:30N 50°07' W 124°42'0 0.0
2018-Oct-19 17:03N 50°07' W 124°42'0 0.0
2018-Oct-19 17:00N 50°07' W 124°42'0 0.0
2018-Oct-19 16:30N 50°07' W 124°42'0 0.0
2018-Oct-19 16:03N 50°07' W 124°42'0 0.1
2018-Oct-19 16:00N 50°07' W 124°42'0 0.0
2018-Oct-19 15:30N 50°07' W 124°42'0 0.0
2018-Oct-19 15:03N 50°07' W 124°42'0 0.1
2018-Oct-19 15:00N 50°07' W 124°42'5 5.8
2018-Oct-19 14:03N 50°05' W 124°49'4 6.5
2018-Oct-19 13:30N 50°02' W 124°54'1 2.3
2018-Oct-19 13:03N 50°01' W 124°53'0 5.2
2018-Oct-19 13:00N 50°02' W 124°53'2 4.8
2018-Oct-19 12:30N 50°01' W 124°57'3 6.3
2018-Oct-19 12:03N 49°59' W 125°00'0 7.0
2018-Oct-19 12:00N 49°59' W 125°01'3 6.6
2018-Oct-19 11:30N 49°58' W 125°06'3 5.6
2018-Oct-19 11:00N 49°58' W 125°10'3 5.4
2018-Oct-19 10:30N 50°01' W 125°13'3 6.2
2018-Oct-19 10:03N 50°03' W 125°14'0 6.2
2018-Oct-19 10:00N 50°03' W 125°15'3 6.9
2018-Oct-19 09:30N 50°06' W 125°18'3 6.6
2018-Oct-19 09:03N 50°08' W 125°21'0 7.7
2018-Oct-19 09:00N 50°09' W 125°21'3 7.0
2018-Oct-19 08:30N 50°12' W 125°22'3 7.4
2018-Oct-19 08:03N 50°15' W 125°23'0 8.3
2018-Oct-19 08:00N 50°16' W 125°24'5 9.7
2018-Oct-19 07:30N 50°20' W 125°26'910.1
2018-Oct-19 06:39N 50°23' W 125°39'19 9.9
2018-Oct-19 04:44N 50°28' W 126°08'6 9.4
2018-Oct-19 04:05N 50°29' W 126°17'110.4
2018-Oct-19 04:01N 50°30' W 126°18'1 9.8
2018-Oct-19 03:56N 50°30' W 126°19'4 9.8
2018-Oct-19 03:30N 50°30' W 126°26'4 9.6
2018-Oct-19 03:03N 50°31' W 126°33'110.1
2018-Oct-19 03:00N 50°31' W 126°33'5 9.3
2018-Oct-19 02:29N 50°32' W 126°41'4 9.5
2018-Oct-19 02:03N 50°33' W 126°47'0 9.1
2018-Oct-19 02:00N 50°33' W 126°48'5 9.7
2018-Oct-19 01:30N 50°34' W 126°55'1 1.7
2018-Oct-19 01:00N 50°35' W 126°56'0 0.0
2018-Oct-18 21:48N 50°35' W 126°56'0 0.1
2018-Oct-18 21:24N 50°35' W 126°56'0 0.1
2018-Oct-18 20:53N 50°35' W 126°56'0 0.0
2018-Oct-18 19:52N 50°35' W 126°56'1 3.1
2018-Oct-18 19:30N 50°34' W 126°55'4 7.7
2018-Oct-18 19:01N 50°34' W 126°49'0 6.9
2018-Oct-18 19:00N 50°34' W 126°49'3 6.6
2018-Oct-18 18:30N 50°34' W 126°54'3 7.5
2018-Oct-18 18:03N 50°36' W 126°58'0 7.6
2018-Oct-18 18:00N 50°36' W 126°58'5 8.3
2018-Oct-18 17:26N 50°36' W 126°50'3 8.7
2018-Oct-18 17:03N 50°36' W 126°45'0 1.9
2018-Oct-18 17:00N 50°36' W 126°45'3 5.2
2018-Oct-18 16:22N 50°34' W 126°41'0 0.6
2018-Oct-18 16:03N 50°34' W 126°41'0 4.9
2018-Oct-18 15:58N 50°33' W 126°41'0 0.7
2018-Oct-18 15:30N 50°33' W 126°41'0 0.5
2018-Oct-18 15:04N 50°33' W 126°41'0 0.6
2018-Oct-18 14:56N 50°33' W 126°41'1 1.5
2018-Oct-18 14:30N 50°33' W 126°42'4 7.6
2018-Oct-18 14:00N 50°31' W 126°37'5 9.3
2018-Oct-18 13:30N 50°30' W 126°30'4 9.6
2018-Oct-18 13:03N 50°30' W 126°23'6 9.8
2018-Oct-18 12:29N 50°29' W 126°14'1910.1
2018-Oct-18 10:33N 50°22' W 125°46'10 9.9
2018-Oct-18 09:35N 50°21' W 125°31'210.5
2018-Oct-18 09:24N 50°20' W 125°28'3 7.9
2018-Oct-18 09:03N 50°18' W 125°25'0 9.7
2018-Oct-18 09:00N 50°18' W 125°25'5 9.5
2018-Oct-18 08:30N 50°13' W 125°23'4 9.4
2018-Oct-18 08:03N 50°09' W 125°21'0 8.9
2018-Oct-18 08:00N 50°09' W 125°21'4 7.5
2018-Oct-18 07:30N 50°06' W 125°18'3 7.8
2018-Oct-18 07:03N 50°03' W 125°14'0 7.5
2018-Oct-18 07:00N 50°03' W 125°14'3 6.8
2018-Oct-18 06:30N 49°60' W 125°12'3 7.2
2018-Oct-18 06:02N 49°57' W 125°08'0 7.7
2018-Oct-18 06:00N 49°57' W 125°08'4 8.0
2018-Oct-18 05:30N 49°54' W 125°04'4 8.4
2018-Oct-18 05:03N 49°52' W 124°59'0 8.6
2018-Oct-18 05:00N 49°51' W 124°59'4 8.8
2018-Oct-18 04:30N 49°49' W 124°54'4 8.6
2018-Oct-18 04:03N 49°46' W 124°49'0 8.7
2018-Oct-18 04:00N 49°46' W 124°48'4 8.7
2018-Oct-18 03:30N 49°43' W 124°44'4 8.8
2018-Oct-18 03:03N 49°40' W 124°39'0 8.3
2018-Oct-18 03:00N 49°40' W 124°39'4 8.6
2018-Oct-18 02:30N 49°36' W 124°35'4 8.7
2018-Oct-18 02:02N 49°33' W 124°30'1 8.7
2018-Oct-18 01:55N 49°33' W 124°29'4 8.9
2018-Oct-18 01:25N 49°29' W 124°25'4 9.1
2018-Oct-18 00:57N 49°26' W 124°20'4 8.7
2018-Oct-18 00:30N 49°24' W 124°16'4 8.3
2018-Oct-18 00:03N 49°21' W 124°12'0 9.0
2018-Oct-18 00:00N 49°21' W 124°11'4 9.0
2018-Oct-17 23:30N 49°19' W 124°05'4 8.9
2018-Oct-17 23:03N 49°17' W 123°59'0 8.7
2018-Oct-17 23:00N 49°17' W 123°59'4 8.9
2018-Oct-17 22:30N 49°15' W 123°52'4 8.8
2018-Oct-17 22:03N 49°14' W 123°47'0 8.9
2018-Oct-17 22:00N 49°13' W 123°46'5 9.2
2018-Oct-17 21:30N 49°11' W 123°41'4 9.0
2018-Oct-17 21:03N 49°08' W 123°36'0 9.3
2018-Oct-17 21:00N 49°08' W 123°36'5 9.6
2018-Oct-17 20:30N 49°03' W 123°35'4 8.7
2018-Oct-17 20:02N 48°59' W 123°35'010.0
2018-Oct-17 20:00N 48°58' W 123°35'3 5.2
2018-Oct-17 19:23N 48°56' W 123°32'0 0.0
2018-Oct-17 18:59N 48°56' W 123°32'0 0.0
2018-Oct-17 17:52N 48°56' W 123°32'0 0.0
2018-Oct-17 17:27N 48°56' W 123°32'0 0.1
2018-Oct-17 17:00N 48°56' W 123°32'0 0.0
2018-Oct-17 16:29N 48°56' W 123°32'0 0.0
2018-Oct-17 16:02N 48°56' W 123°32'0 0.2
2018-Oct-17 16:00N 48°56' W 123°32'0 0.0
2018-Oct-17 15:29N 48°56' W 123°32'0 0.0
2018-Oct-17 14:53N 48°56' W 123°32'2 2.5
2018-Oct-17 14:03N 48°55' W 123°29'3 4.6
2018-Oct-17 13:30N 48°53' W 123°26'2 4.8
2018-Oct-17 13:02N 48°52' W 123°24'0 4.6
2018-Oct-17 13:00N 48°51' W 123°24'3 5.1
2018-Oct-17 12:29N 48°50' W 123°20'2 4.2
2018-Oct-17 12:03N 48°48' W 123°20'0 4.4
2018-Oct-17 12:00N 48°48' W 123°20'3 5.5
2018-Oct-17 11:30N 48°45' W 123°19'4 8.2
2018-Oct-17 11:03N 48°42' W 123°16'0 7.4
2018-Oct-17 11:00N 48°42' W 123°16'4 7.2
2018-Oct-17 10:30N 48°39' W 123°14'3 6.6
2018-Oct-17 10:03N 48°36' W 123°13'0 5.7
2018-Oct-17 10:00N 48°35' W 123°13'3 5.5
2018-Oct-17 09:30N 48°33' W 123°11'3 5.7
2018-Oct-17 09:03N 48°30' W 123°10'0 5.7
2018-Oct-17 09:00N 48°30' W 123°10'3 6.0
2018-Oct-17 08:30N 48°27' W 123°10'3 6.3
2018-Oct-17 08:03N 48°25' W 123°13'0 5.9
2018-Oct-17 08:00N 48°25' W 123°13'3 6.6
2018-Oct-17 07:30N 48°23' W 123°18'3 6.0
2018-Oct-17 07:03N 48°23' W 123°22'0 7.0
2018-Oct-17 07:00N 48°24' W 123°22'2 4.1
2018-Oct-17 06:30N 48°25' W 123°23'0 0.0
2018-Oct-16 19:24N 48°25' W 123°22'0 0.0
2018-Oct-16 17:54N 48°25' W 123°22'0 0.0
2018-Oct-16 17:13N 48°25' W 123°22'0 0.2
2018-Oct-16 17:02N 48°25' W 123°22'0 0.5
2018-Oct-16 16:57N 48°25' W 123°22'0 0.1
2018-Oct-16 16:00N 48°25' W 123°22'0 0.0
2018-Oct-16 15:24N 48°25' W 123°22'0 0.0
2018-Oct-16 15:03N 48°25' W 123°22'0 0.1
2018-Oct-16 14:56N 48°25' W 123°22'3 3.7
2018-Oct-16 14:02N 48°23' W 123°19'0 7.2
2018-Oct-16 14:00N 48°23' W 123°18'3 6.4
2018-Oct-16 13:30N 48°25' W 123°14'3 7.2
2018-Oct-16 13:04N 48°25' W 123°09'0 8.8
2018-Oct-16 13:01N 48°25' W 123°09'4 8.5
2018-Oct-16 12:30N 48°25' W 123°02'4 8.1
2018-Oct-16 12:03N 48°25' W 122°57'0 8.3
2018-Oct-16 12:00N 48°26' W 122°57'5 9.3
2018-Oct-16 11:30N 48°30' W 122°57'3 7.0
2018-Oct-16 11:04N 48°33' W 123°00'0 4.5
2018-Oct-16 11:01N 48°33' W 123°00'0 0.8
2018-Oct-16 10:29N 48°32' W 123°01'0 0.0
2018-Oct-16 10:02N 48°32' W 123°01'0 0.0
2018-Oct-16 09:53N 48°32' W 123°01'0 0.0
2018-Oct-16 09:29N 48°32' W 123°01'0 0.0
2018-Oct-16 09:02N 48°32' W 123°01'0 0.0
2018-Oct-16 08:59N 48°32' W 123°01'0 0.0
2018-Oct-16 08:26N 48°32' W 123°01'0 0.0
2018-Oct-16 08:02N 48°32' W 123°01'0 0.0
2018-Oct-16 07:59N 48°32' W 123°01'0 0.0
2018-Oct-16 07:29N 48°32' W 123°01'0 0.0
2018-Oct-16 06:53N 48°32' W 123°01'0 0.0
2018-Oct-16 06:26N 48°32' W 123°01'0 0.0
2018-Oct-16 06:02N 48°32' W 123°01'0 0.0
2018-Oct-16 05:59N 48°32' W 123°01'0 0.0
2018-Oct-16 05:29N 48°32' W 123°01'0 0.0
2018-Oct-16 05:02N 48°32' W 123°01'0 0.0
2018-Oct-16 04:56N 48°32' W 123°01'0 0.0
2018-Oct-16 04:29N 48°32' W 123°01'0 0.0
2018-Oct-16 04:02N 48°32' W 123°01'0 0.8
2018-Oct-16 03:59N 48°32' W 123°01'0 0.1
2018-Oct-16 03:29N 48°32' W 123°01'0 0.0
2018-Oct-16 03:02N 48°32' W 123°01'0 0.0
2018-Oct-16 02:59N 48°32' W 123°01'0 0.0
2018-Oct-16 02:29N 48°32' W 123°01'0 0.1
2018-Oct-16 02:02N 48°32' W 123°01'0 0.8
2018-Oct-16 01:59N 48°32' W 123°01'0 0.0
2018-Oct-16 01:29N 48°32' W 123°01'0 0.0
2018-Oct-16 00:59N 48°32' W 123°01'0 0.0
2018-Oct-16 00:26N 48°32' W 123°01'0 0.0
2018-Oct-16 00:02N 48°32' W 123°01'0 0.0
2018-Oct-15 23:59N 48°32' W 123°01'0 0.1
2018-Oct-15 23:26N 48°32' W 123°01'0 0.1
2018-Oct-15 23:02N 48°32' W 123°01'0 0.0
2018-Oct-15 22:59N 48°32' W 123°01'0 0.0
2018-Oct-15 22:29N 48°32' W 123°01'0 0.0
2018-Oct-15 21:59N 48°32' W 123°01'0 0.0
2018-Oct-15 21:29N 48°32' W 123°01'0 0.0
2018-Oct-15 20:56N 48°32' W 123°01'0 0.1
2018-Oct-15 20:26N 48°32' W 123°01'0 0.0
2018-Oct-15 20:03N 48°32' W 123°01'0 1.2
2018-Oct-15 20:01N 48°32' W 123°01'3 5.2
2018-Oct-15 19:30N 48°31' W 122°57'4 9.1
2018-Oct-15 19:03N 48°27' W 122°57'0 6.8
2018-Oct-15 19:00N 48°27' W 122°57'3 5.3
2018-Oct-15 18:30N 48°25' W 122°59'510.3
2018-Oct-15 18:03N 48°28' W 123°05'010.2
2018-Oct-15 18:00N 48°28' W 123°05'4 8.8
2018-Oct-15 17:30N 48°31' W 123°10'4 9.5
2018-Oct-15 17:03N 48°35' W 123°13'0 9.7
2018-Oct-15 17:00N 48°35' W 123°13'4 8.0
2018-Oct-15 16:31N 48°39' W 123°14'3 6.0
2018-Oct-15 16:03N 48°42' W 123°13'1 8.5
2018-Oct-15 16:00N 48°42' W 123°13'4 8.4
2018-Oct-15 15:30N 48°43' W 123°07'3 7.0
2018-Oct-15 15:03N 48°44' W 123°02'0 6.0
2018-Oct-15 15:00N 48°45' W 123°02'4 8.3
2018-Oct-15 14:30N 48°45' W 122°56'2 2.9
2018-Oct-15 13:54N 48°46' W 122°54'0 0.0
2018-Oct-15 12:58N 48°46' W 122°54'0 0.0
2018-Oct-15 11:53N 48°46' W 122°54'0 0.0
2018-Oct-15 11:20N 48°46' W 122°54'0 0.1
2018-Oct-15 10:52N 48°46' W 122°54'0 0.0
2018-Oct-15 10:24N 48°46' W 122°54'0 0.1
2018-Oct-15 09:58N 48°46' W 122°54'0 0.0
2018-Oct-15 09:25N 48°46' W 122°54'0 0.0
2018-Oct-15 08:57N 48°46' W 122°54'0 0.0
2018-Oct-15 07:20N 48°46' W 122°54'0 0.0
2018-Oct-15 07:03N 48°46' W 122°54'0 0.2
2018-Oct-15 07:00N 48°46' W 122°54'0 0.1
2018-Oct-15 06:30N 48°46' W 122°54'0 0.0
2018-Oct-15 05:45N 48°46' W 122°54'0 0.0
2018-Oct-15 04:43N 48°46' W 122°54'0 0.0
2018-Oct-15 04:20N 48°46' W 122°54'0 0.0
2018-Oct-15 03:28N 48°46' W 122°54'0 0.1
2018-Oct-15 02:44N 48°46' W 122°54'1 4.9
2018-Oct-15 02:30N 48°45' W 122°52'1 1.1
2018-Oct-15 01:47N 48°45' W 122°54'0 0.0
2018-Oct-15 01:10N 48°45' W 122°54'0 0.0
2018-Oct-15 00:52N 48°45' W 122°54'0 0.0
2018-Oct-15 00:28N 48°45' W 122°54'0 0.0
2018-Oct-15 00:01N 48°45' W 122°54'0 0.0
2018-Oct-14 23:40N 48°45' W 122°54'0 0.0
2018-Oct-14 23:13N 48°45' W 122°54'0 0.2
2018-Oct-14 22:58N 48°45' W 122°54'0 0.0
2018-Oct-14 22:28N 48°45' W 122°54'0 0.0
2018-Oct-14 21:55N 48°45' W 122°54'0 0.0
2018-Oct-14 21:28N 48°45' W 122°54'0 0.0
2018-Oct-14 21:01N 48°45' W 122°54'0 0.1
2018-Oct-14 20:52N 48°45' W 122°54'0 0.0
2018-Oct-14 20:04N 48°45' W 122°54'0 0.0
2018-Oct-14 19:49N 48°45' W 122°54'0 0.0
2018-Oct-14 19:28N 48°45' W 122°54'2 4.6
2018-Oct-14 19:03N 48°44' W 122°56'1 9.6
2018-Oct-14 19:00N 48°44' W 122°57'4 8.7
2018-Oct-14 18:30N 48°40' W 123°01'4 8.4
2018-Oct-14 18:03N 48°38' W 123°06'0 8.7
2018-Oct-14 18:00N 48°38' W 123°06'3 5.2
2018-Oct-14 17:30N 48°39' W 123°10'3 6.9
2018-Oct-14 17:03N 48°38' W 123°06'0 9.0
2018-Oct-14 17:00N 48°37' W 123°05'3 6.1
2018-Oct-14 16:30N 48°35' W 123°02'3 6.3
2018-Oct-14 16:03N 48°38' W 123°04'0 6.1
2018-Oct-14 16:00N 48°38' W 123°03'3 5.6
2018-Oct-14 15:30N 48°40' W 123°01'3 5.9
2018-Oct-14 15:01N 48°42' W 122°58'0 5.7
2018-Oct-14 15:00N 48°43' W 122°58'3 6.0
2018-Oct-14 14:30N 48°44' W 122°54'3 6.6
2018-Oct-14 14:00N 48°42' W 122°50'4 8.6
2018-Oct-14 13:30N 48°40' W 122°44'511.4
2018-Oct-14 13:03N 48°35' W 122°45'112.0
2018-Oct-14 13:00N 48°35' W 122°45'610.9
2018-Oct-14 12:30N 48°29' W 122°44'510.1
2018-Oct-14 12:01N 48°24' W 122°44'3 9.0
2018-Oct-14 11:39N 48°21' W 122°45'15 7.7
2018-Oct-14 09:39N 48°06' W 122°39'210.5
2018-Oct-14 09:26N 48°04' W 122°38'710.3
2018-Oct-14 08:47N 47°58' W 122°34'311.1
2018-Oct-14 08:30N 47°56' W 122°30'510.4
2018-Oct-14 08:03N 47°52' W 122°28'110.4
2018-Oct-14 08:00N 47°51' W 122°27'510.1
2018-Oct-14 07:30N 47°46' W 122°26'4 9.5
2018-Oct-14 07:03N 47°42' W 122°27'0 9.3
2018-Oct-14 07:00N 47°42' W 122°27'4 8.4
2018-Oct-14 06:31N 47°38' W 122°25'1 2.7
2018-Oct-14 06:03N 47°38' W 122°23'0 0.0
2018-Oct-14 05:57N 47°38' W 122°23'0 0.0
2018-Oct-14 05:27N 47°38' W 122°23'0 0.0
2018-Oct-14 05:03N 47°38' W 122°23'  

Dump ship's entire track history